sensor_id;sensor_type;location;lat;lon;timestamp;pressure;altitude;pressure_sealevel;temperature;humidity
3082;BME280;1551;51.046;7.010;2024-02-15T00:01:52;101134.50;;;13.08;100.00
3082;BME280;1551;51.046;7.010;2024-02-15T00:04:41;101133.66;;;13.06;100.00
3082;BME280;1551;51.046;7.010;2024-02-15T00:07:31;101136.19;;;13.09;100.00
3082;BME280;1551;51.046;7.010;2024-02-15T00:10:20;101138.81;;;13.08;100.00
3082;BME280;1551;51.046;7.010;2024-02-15T00:13:13;101138.78;;;13.09;100.00
3082;BME280;1551;51.046;7.010;2024-02-15T00:16:03;101125.00;;;13.15;100.00
3082;BME280;1551;51.046;7.010;2024-02-15T00:18:52;101126.66;;;13.19;100.00
3082;BME280;1551;51.046;7.010;2024-02-15T00:21:44;101136.09;;;13.17;100.00
3082;BME280;1551;51.046;7.010;2024-02-15T00:24:33;101132.66;;;13.20;100.00
3082;BME280;1551;51.046;7.010;2024-02-15T00:27:21;101125.75;;;13.20;100.00
3082;BME280;1551;51.046;7.010;2024-02-15T00:30:11;101130.00;;;13.23;100.00
3082;BME280;1551;51.046;7.010;2024-02-15T00:33:00;101132.50;;;13.29;100.00
3082;BME280;1551;51.046;7.010;2024-02-15T00:35:51;101128.28;;;13.23;100.00
3082;BME280;1551;51.046;7.010;2024-02-15T00:38:41;101132.63;;;13.21;100.00
3082;BME280;1551;51.046;7.010;2024-02-15T00:41:32;101137.69;;;13.26;100.00
3082;BME280;1551;51.046;7.010;2024-02-15T00:44:22;101137.69;;;13.26;100.00
3082;BME280;1551;51.046;7.010;2024-02-15T00:47:11;101131.72;;;13.24;100.00
3082;BME280;1551;51.046;7.010;2024-02-15T00:50:01;101133.44;;;13.23;100.00
3082;BME280;1551;51.046;7.010;2024-02-15T00:52:49;101133.41;;;13.26;100.00
3082;BME280;1551;51.046;7.010;2024-02-15T00:55:38;101138.50;;;13.29;100.00
3082;BME280;1551;51.046;7.010;2024-02-15T00:58:27;101138.53;;;13.26;100.00
3082;BME280;1551;51.046;7.010;2024-02-15T01:01:16;101137.69;;;13.26;100.00
3082;BME280;1551;51.046;7.010;2024-02-15T01:04:05;101130.84;;;13.26;100.00
3082;BME280;1551;51.046;7.010;2024-02-15T01:06:54;101132.50;;;13.27;100.00
3082;BME280;1551;51.046;7.010;2024-02-15T01:09:43;101132.50;;;13.27;100.00
3082;BME280;1551;51.046;7.010;2024-02-15T01:12:34;101124.81;;;13.29;100.00
3082;BME280;1551;51.046;7.010;2024-02-15T01:15:23;101128.22;;;13.29;100.00
3082;BME280;1551;51.046;7.010;2024-02-15T01:18:12;101129.13;;;13.27;100.00
3082;BME280;1551;51.046;7.010;2024-02-15T01:21:01;101135.94;;;13.29;100.00
3082;BME280;1551;51.046;7.010;2024-02-15T01:23:50;101128.16;;;13.32;100.00
3082;BME280;1551;51.046;7.010;2024-02-15T01:26:40;101127.31;;;13.33;100.00
3082;BME280;1551;51.046;7.010;2024-02-15T01:29:29;101124.72;;;13.33;100.00
3082;BME280;1551;51.046;7.010;2024-02-15T01:32:18;101135.00;;;13.35;100.00
3082;BME280;1551;51.046;7.010;2024-02-15T01:35:07;101123.91;;;13.31;100.00
3082;BME280;1551;51.046;7.010;2024-02-15T01:37:56;101123.88;;;13.33;100.00
3082;BME280;1551;51.046;7.010;2024-02-15T01:40:47;101121.34;;;13.30;100.00
3082;BME280;1551;51.046;7.010;2024-02-15T01:43:36;101120.56;;;13.25;100.00
3082;BME280;1551;51.046;7.010;2024-02-15T01:46:25;101127.44;;;13.24;100.00
3082;BME280;1551;51.046;7.010;2024-02-15T01:49:14;101118.06;;;13.22;100.00
3082;BME280;1551;51.046;7.010;2024-02-15T01:52:05;101121.50;;;13.19;100.00
3082;BME280;1551;51.046;7.010;2024-02-15T01:54:57;101113.88;;;13.15;100.00
3082;BME280;1551;51.046;7.010;2024-02-15T01:57:47;101113.03;;;13.11;100.00
3082;BME280;1551;51.046;7.010;2024-02-15T02:00:37;101107.94;;;13.09;100.00
3082;BME280;1551;51.046;7.010;2024-02-15T02:03:28;101113.94;;;13.08;100.00
3082;BME280;1551;51.046;7.010;2024-02-15T02:06:17;101104.53;;;13.06;100.00
3082;BME280;1551;51.046;7.010;2024-02-15T02:09:10;101098.53;;;13.04;100.00
3082;BME280;1551;51.046;7.010;2024-02-15T02:12:01;101097.69;;;13.03;100.00
3082;BME280;1551;51.046;7.010;2024-02-15T02:14:50;101105.41;;;13.06;100.00
3082;BME280;1551;51.046;7.010;2024-02-15T02:17:39;101098.53;;;13.07;100.00
3082;BME280;1551;51.046;7.010;2024-02-15T02:20:29;101102.81;;;13.05;100.00
3082;BME280;1551;51.046;7.010;2024-02-15T02:23:20;101106.25;;;13.07;100.00
3082;BME280;1551;51.046;7.010;2024-02-15T02:26:11;101100.25;;;13.06;100.00
3082;BME280;1551;51.046;7.010;2024-02-15T02:29:00;101098.53;;;13.04;100.00
3082;BME280;1551;51.046;7.010;2024-02-15T02:31:53;101090.84;;;13.07;100.00
3082;BME280;1551;51.046;7.010;2024-02-15T02:34:42;101089.97;;;13.08;100.00
3082;BME280;1551;51.046;7.010;2024-02-15T02:37:33;101085.66;;;13.08;100.00
3082;BME280;1551;51.046;7.010;2024-02-15T02:40:25;101083.97;;;13.07;100.00
3082;BME280;1551;51.046;7.010;2024-02-15T02:43:14;101081.38;;;13.09;100.00
3082;BME280;1551;51.046;7.010;2024-02-15T02:46:03;101087.34;;;13.11;100.00
3082;BME280;1551;51.046;7.010;2024-02-15T02:48:54;101077.06;;;13.13;100.00
3082;BME280;1551;51.046;7.010;2024-02-15T02:51:44;101072.78;;;13.12;100.00
3082;BME280;1551;51.046;7.010;2024-02-15T02:54:33;101062.53;;;13.08;100.00
3082;BME280;1551;51.046;7.010;2024-02-15T02:57:23;101069.41;;;13.06;100.00
3082;BME280;1551;51.046;7.010;2024-02-15T03:00:13;101072.88;;;13.05;100.00
3082;BME280;1551;51.046;7.010;2024-02-15T03:03:05;101060.03;;;13.05;100.00
3082;BME280;1551;51.046;7.010;2024-02-15T03:05:54;101063.44;;;13.06;100.00
3082;BME280;1551;51.046;7.010;2024-02-15T03:08:43;101050.63;;;13.00;100.00
3082;BME280;1551;51.046;7.010;2024-02-15T03:11:33;101051.50;;;13.00;100.00
3082;BME280;1551;51.046;7.010;2024-02-15T03:14:23;101054.88;;;13.05;100.00
3082;BME280;1551;51.046;7.010;2024-02-15T03:17:13;101050.59;;;13.03;100.00
3082;BME280;1551;51.046;7.010;2024-02-15T03:20:03;101055.72;;;13.04;100.00
3082;BME280;1551;51.046;7.010;2024-02-15T03:23:00;101054.84;;;13.04;100.00
3082;BME280;1551;51.046;7.010;2024-02-15T03:25:49;101054.00;;;13.05;100.00
3082;BME280;1551;51.046;7.010;2024-02-15T03:28:38;101050.59;;;13.03;100.00
3082;BME280;1551;51.046;7.010;2024-02-15T03:31:27;101046.34;;;13.00;100.00
3082;BME280;1551;51.046;7.010;2024-02-15T03:34:16;101035.19;;;13.01;100.00
3082;BME280;1551;51.046;7.010;2024-02-15T03:37:06;101034.38;;;13.01;100.00
3082;BME280;1551;51.046;7.010;2024-02-15T03:39:55;101038.66;;;13.00;100.00
3082;BME280;1551;51.046;7.010;2024-02-15T03:42:43;101033.50;;;12.99;100.00
3082;BME280;1551;51.046;7.010;2024-02-15T03:45:32;101038.66;;;13.00;100.00
3082;BME280;1551;51.046;7.010;2024-02-15T03:48:21;101030.97;;;12.97;100.00
3082;BME280;1551;51.046;7.010;2024-02-15T03:51:10;101040.41;;;12.98;100.00
3082;BME280;1551;51.046;7.010;2024-02-15T03:53:59;101041.28;;;12.94;100.00
3082;BME280;1551;51.046;7.010;2024-02-15T03:56:49;101038.72;;;12.96;100.00
3082;BME280;1551;51.046;7.010;2024-02-15T03:59:41;101036.97;;;12.96;100.00
3082;BME280;1551;51.046;7.010;2024-02-15T04:02:30;101037.91;;;12.94;100.00
3082;BME280;1551;51.046;7.010;2024-02-15T04:05:19;101034.44;;;12.95;100.00
3082;BME280;1551;51.046;7.010;2024-02-15T04:08:10;101025.06;;;12.92;100.00
3082;BME280;1551;51.046;7.010;2024-02-15T04:10:59;101038.72;;;12.96;100.00
3082;BME280;1551;51.046;7.010;2024-02-15T04:13:48;101043.03;;;12.94;100.00
3082;BME280;1551;51.046;7.010;2024-02-15T04:16:37;101045.53;;;12.98;100.00
3082;BME280;1551;51.046;7.010;2024-02-15T04:19:27;101036.97;;;12.96;100.00
3082;BME280;1551;51.046;7.010;2024-02-15T04:22:16;101042.97;;;12.98;100.00
3082;BME280;1551;51.046;7.010;2024-02-15T04:25:05;101038.72;;;12.94;100.00
3082;BME280;1551;51.046;7.010;2024-02-15T04:27:55;101038.69;;;12.97;100.00
3082;BME280;1551;51.046;7.010;2024-02-15T04:30:46;101023.22;;;13.00;100.00
3082;BME280;1551;51.046;7.010;2024-02-15T04:33:37;101024.06;;;13.02;100.00
3082;BME280;1551;51.046;7.010;2024-02-15T04:36:26;101028.31;;;13.03;100.00
3082;BME280;1551;51.046;7.010;2024-02-15T04:39:15;101033.47;;;13.02;100.00
3082;BME280;1551;51.046;7.010;2024-02-15T04:42:13;101036.94;;;13.01;100.00
3082;BME280;1551;51.046;7.010;2024-02-15T04:45:02;101027.56;;;12.98;100.00
3082;BME280;1551;51.046;7.010;2024-02-15T04:47:52;101031.75;;;13.02;100.00
3082;BME280;1551;51.046;7.010;2024-02-15T04:50:42;101028.31;;;13.03;100.00
3082;BME280;1551;51.046;7.010;2024-02-15T04:53:31;101026.56;;;13.10;100.00
3082;BME280;1551;51.046;7.010;2024-02-15T04:56:21;101030.00;;;13.04;100.00
3082;BME280;1551;51.046;7.010;2024-02-15T04:59:10;101023.22;;;12.99;100.00
3082;BME280;1551;51.046;7.010;2024-02-15T05:02:04;101018.94;;;12.99;100.00
3082;BME280;1551;51.046;7.010;2024-02-15T05:04:52;101017.19;;;13.03;100.00
3082;BME280;1551;51.046;7.010;2024-02-15T05:07:45;101015.47;;;13.06;100.00
3082;BME280;1551;51.046;7.010;2024-02-15T05:10:34;101014.59;;;13.04;100.00
3082;BME280;1551;51.046;7.010;2024-02-15T05:13:24;101011.22;;;13.02;100.00
3082;BME280;1551;51.046;7.010;2024-02-15T05:16:14;101023.97;;;13.10;100.00
3082;BME280;1551;51.046;7.010;2024-02-15T05:19:03;101014.59;;;13.07;100.00
3082;BME280;1551;51.046;7.010;2024-02-15T05:21:51;101023.09;;;13.11;100.00
3082;BME280;1551;51.046;7.010;2024-02-15T05:24:40;101014.53;;;13.10;100.00
3082;BME280;1551;51.046;7.010;2024-02-15T05:27:29;101012.81;;;13.11;100.00
3082;BME280;1551;51.046;7.010;2024-02-15T05:30:18;101007.66;;;13.13;100.00
3082;BME280;1551;51.046;7.010;2024-02-15T05:33:07;100999.09;;;13.10;100.00
3082;BME280;1551;51.046;7.010;2024-02-15T05:35:59;101008.56;;;13.10;100.00
3082;BME280;1551;51.046;7.010;2024-02-15T05:38:51;101006.00;;;13.08;100.00
3082;BME280;1551;51.046;7.010;2024-02-15T05:41:40;101011.13;;;13.10;100.00
3082;BME280;1551;51.046;7.010;2024-02-15T05:44:29;101013.66;;;13.12;100.00
3082;BME280;1551;51.046;7.010;2024-02-15T05:47:18;101011.09;;;13.12;100.00
3082;BME280;1551;51.046;7.010;2024-02-15T05:50:07;101014.56;;;13.09;100.00
3082;BME280;1551;51.046;7.010;2024-02-15T05:52:56;101016.28;;;13.08;100.00
3082;BME280;1551;51.046;7.010;2024-02-15T05:55:46;101005.09;;;13.11;100.00
3082;BME280;1551;51.046;7.010;2024-02-15T05:58:38;101019.66;;;13.10;100.00
3082;BME280;1551;51.046;7.010;2024-02-15T06:01:28;101012.03;;;13.06;100.00
3082;BME280;1551;51.046;7.010;2024-02-15T06:04:18;101011.97;;;13.10;100.00
3082;BME280;1551;51.046;7.010;2024-02-15T06:07:08;101007.75;;;13.06;100.00
3082;BME280;1551;51.046;7.010;2024-02-15T06:09:58;101002.59;;;13.03;100.00
3082;BME280;1551;51.046;7.010;2024-02-15T06:12:52;101002.56;;;13.09;100.00
3082;BME280;1551;51.046;7.010;2024-02-15T06:15:41;101000.03;;;13.06;100.00
3082;BME280;1551;51.046;7.010;2024-02-15T06:18:30;100997.50;;;13.02;100.00
3082;BME280;1551;51.046;7.010;2024-02-15T06:21:21;100999.19;;;13.04;100.00
3082;BME280;1551;51.046;7.010;2024-02-15T06:24:11;101002.59;;;13.03;100.00
3082;BME280;1551;51.046;7.010;2024-02-15T06:27:00;101000.94;;;13.05;100.00
3082;BME280;1551;51.046;7.010;2024-02-15T06:29:50;101000.03;;;13.08;100.00
3082;BME280;1551;51.046;7.010;2024-02-15T06:32:58;101006.84;;;13.09;100.00
3082;BME280;1551;51.046;7.010;2024-02-15T06:36:07;101003.38;;;13.12;100.00
3082;BME280;1551;51.046;7.010;2024-02-15T06:39:15;101000.78;;;13.15;100.00
3082;BME280;1551;51.046;7.010;2024-02-15T06:42:22;100999.00;;;13.18;100.00
3082;BME280;1551;51.046;7.010;2024-02-15T06:45:11;101005.00;;;13.19;100.00
3082;BME280;1551;51.046;7.010;2024-02-15T06:48:02;100998.13;;;13.18;100.00
3082;BME280;1551;51.046;7.010;2024-02-15T06:50:51;101002.41;;;13.19;100.00
3082;BME280;1551;51.046;7.010;2024-02-15T06:53:40;101005.00;;;13.19;100.00
3082;BME280;1551;51.046;7.010;2024-02-15T06:56:28;101006.66;;;13.21;100.00
3082;BME280;1551;51.046;7.010;2024-02-15T06:59:18;101007.53;;;13.22;100.00
3082;BME280;1551;51.046;7.010;2024-02-15T07:02:08;101000.63;;;13.24;100.00
3082;BME280;1551;51.046;7.010;2024-02-15T07:04:57;101008.31;;;13.27;100.00
3082;BME280;1551;51.046;7.010;2024-02-15T07:07:46;101010.88;;;13.27;100.00
3082;BME280;1551;51.046;7.010;2024-02-15T07:10:37;101018.56;;;13.28;100.00
3082;BME280;1551;51.046;7.010;2024-02-15T07:13:27;101026.19;;;13.33;100.00
3082;BME280;1551;51.046;7.010;2024-02-15T07:16:16;101020.25;;;13.29;100.00
3082;BME280;1551;51.046;7.010;2024-02-15T07:19:05;101014.34;;;13.24;100.00
3082;BME280;1551;51.046;7.010;2024-02-15T07:21:54;101014.41;;;13.20;100.00
3082;BME280;1551;51.046;7.010;2024-02-15T07:24:45;101018.69;;;13.18;100.00
3082;BME280;1551;51.046;7.010;2024-02-15T07:27:34;101010.16;;;13.17;100.00
3082;BME280;1551;51.046;7.010;2024-02-15T07:30:23;101017.00;;;13.20;100.00
3082;BME280;1551;51.046;7.010;2024-02-15T07:33:13;101020.38;;;13.22;100.00
3082;BME280;1551;51.046;7.010;2024-02-15T07:36:03;101017.03;;;13.17;100.00
3082;BME280;1551;51.046;7.010;2024-02-15T07:38:53;101014.41;;;13.18;100.00
3082;BME280;1551;51.046;7.010;2024-02-15T07:41:43;101020.38;;;13.20;100.00
3082;BME280;1551;51.046;7.010;2024-02-15T07:44:31;101014.41;;;13.18;100.00
3082;BME280;1551;51.046;7.010;2024-02-15T07:47:21;101011.81;;;13.21;100.00
3082;BME280;1551;51.046;7.010;2024-02-15T07:50:16;101005.81;;;13.22;100.00
3082;BME280;1551;51.046;7.010;2024-02-15T07:53:09;101020.31;;;13.25;100.00
3082;BME280;1551;51.046;7.010;2024-02-15T07:55:59;101018.50;;;13.30;100.00
3082;BME280;1551;51.046;7.010;2024-02-15T07:58:48;101019.34;;;13.33;100.00
3082;BME280;1551;51.046;7.010;2024-02-15T08:01:40;101029.56;;;13.36;100.00
3082;BME280;1551;51.046;7.010;2024-02-15T08:04:29;101021.91;;;13.33;100.00
3082;BME280;1551;51.046;7.010;2024-02-15T08:07:18;101014.94;;;13.40;100.00
3082;BME280;1551;51.046;7.010;2024-02-15T08:10:09;101009.84;;;13.37;100.00
3082;BME280;1551;51.046;7.010;2024-02-15T08:13:01;101025.22;;;13.40;100.00
3082;BME280;1551;51.046;7.010;2024-02-15T08:15:50;101016.75;;;13.33;100.00
3082;BME280;1551;51.046;7.010;2024-02-15T08:18:45;101011.69;;;13.29;100.00
3082;BME280;1551;51.046;7.010;2024-02-15T08:21:34;101014.31;;;13.26;100.00
3082;BME280;1551;51.046;7.010;2024-02-15T08:24:27;101015.16;;;13.26;100.00
3082;BME280;1551;51.046;7.010;2024-02-15T08:27:17;101008.34;;;13.24;100.00
3082;BME280;1551;51.046;7.010;2024-02-15T08:30:08;101008.34;;;13.24;100.00
3082;BME280;1551;51.046;7.010;2024-02-15T08:32:57;101011.81;;;13.21;100.00
3082;BME280;1551;51.046;7.010;2024-02-15T08:35:47;101011.81;;;13.21;100.00
3082;BME280;1551;51.046;7.010;2024-02-15T08:38:36;101005.84;;;13.18;100.00
3082;BME280;1551;51.046;7.010;2024-02-15T08:41:28;100994.69;;;13.20;100.00
3082;BME280;1551;51.046;7.010;2024-02-15T08:44:18;100996.34;;;13.24;100.00
3082;BME280;1551;51.046;7.010;2024-02-15T08:47:07;100987.81;;;13.21;100.00
3082;BME280;1551;51.046;7.010;2024-02-15T08:49:57;100986.16;;;13.20;100.00
3082;BME280;1551;51.046;7.010;2024-02-15T08:52:47;100979.19;;;13.25;100.00
3082;BME280;1551;51.046;7.010;2024-02-15T08:55:36;100983.56;;;13.20;100.00
3082;BME280;1551;51.046;7.010;2024-02-15T08:58:25;100980.94;;;13.24;100.00
3082;BME280;1551;51.046;7.010;2024-02-15T09:01:15;100976.56;;;13.29;100.00
3082;BME280;1551;51.046;7.010;2024-02-15T09:04:04;100982.56;;;13.28;100.00
3082;BME280;1551;51.046;7.010;2024-02-15T09:06:53;100979.91;;;13.33;100.00
3082;BME280;1551;51.046;7.010;2024-02-15T09:09:42;100977.22;;;13.40;100.00
3082;BME280;1551;51.046;7.010;2024-02-15T09:12:31;100972.81;;;13.47;100.00
3082;BME280;1551;51.046;7.010;2024-02-15T09:15:20;100962.53;;;13.47;100.00
3082;BME280;1551;51.046;7.010;2024-02-15T09:18:10;100975.25;;;13.54;100.00
3082;BME280;1551;51.046;7.010;2024-02-15T09:20:59;100970.81;;;13.62;100.00
3082;BME280;1551;51.046;7.010;2024-02-15T09:23:48;100975.13;;;13.60;100.00
3082;BME280;1551;51.046;7.010;2024-02-15T09:26:37;100965.56;;;13.68;100.00
3082;BME280;1551;51.046;7.010;2024-02-15T09:29:30;100972.31;;;13.74;100.00
3082;BME280;1551;51.046;7.010;2024-02-15T09:32:21;100970.41;;;13.84;100.00
3082;BME280;1551;51.046;7.010;2024-02-15T09:35:12;100971.22;;;13.86;100.00
3082;BME280;1551;51.046;7.010;2024-02-15T09:38:01;100977.31;;;13.83;100.00
3082;BME280;1551;51.046;7.010;2024-02-15T09:40:50;100980.75;;;13.82;100.00
3082;BME280;1551;51.046;7.010;2024-02-15T09:43:39;100985.03;;;13.83;100.00
3082;BME280;1551;51.046;7.010;2024-02-15T09:46:29;100989.22;;;13.87;100.00
3082;BME280;1551;51.046;7.010;2024-02-15T09:49:19;100984.91;;;13.89;100.00
3082;BME280;1551;51.046;7.010;2024-02-15T09:52:09;100976.91;;;14.03;100.00
3082;BME280;1551;51.046;7.010;2024-02-15T09:55:07;100980.06;;;14.18;100.00
3082;BME280;1551;51.046;7.010;2024-02-15T09:58:02;100976.31;;;14.34;100.00
3082;BME280;1551;51.046;7.010;2024-02-15T10:00:53;100970.88;;;14.46;100.00
3082;BME280;1551;51.046;7.010;2024-02-15T10:03:42;100964.75;;;14.52;100.00
3082;BME280;1551;51.046;7.010;2024-02-15T10:06:31;100974.22;;;14.52;100.00
3082;BME280;1551;51.046;7.010;2024-02-15T10:09:28;100976.00;;;14.48;100.00
3082;BME280;1551;51.046;7.010;2024-02-15T10:12:20;100981.03;;;14.54;100.00
3082;BME280;1551;51.046;7.010;2024-02-15T10:15:09;100964.97;;;14.43;100.00
3082;BME280;1551;51.046;7.010;2024-02-15T10:18:00;100973.44;;;14.48;100.00
3082;BME280;1551;51.046;7.010;2024-02-15T10:20:58;100970.06;;;14.44;100.00
3082;BME280;1551;51.046;7.010;2024-02-15T10:23:47;100976.88;;;14.49;100.00
3082;BME280;1551;51.046;7.010;2024-02-15T10:26:36;100969.06;;;14.52;100.00
3082;BME280;1551;51.046;7.010;2024-02-15T10:29:25;100964.75;;;14.52;100.00
3082;BME280;1551;51.046;7.010;2024-02-15T10:32:14;100967.03;;;14.66;100.00
3082;BME280;1551;51.046;7.010;2024-02-15T10:35:04;100967.00;;;14.67;100.00
3082;BME280;1551;51.046;7.010;2024-02-15T10:38:10;100960.75;;;14.77;100.00
3082;BME280;1551;51.046;7.010;2024-02-15T10:41:04;100962.91;;;14.95;99.86
3082;BME280;1551;51.046;7.010;2024-02-15T10:43:56;100967.97;;;15.00;98.95
3082;BME280;1551;51.046;7.010;2024-02-15T10:46:47;100964.47;;;15.02;98.40
3082;BME280;1551;51.046;7.010;2024-02-15T10:49:45;100961.72;;;15.08;97.51
3082;BME280;1551;51.046;7.010;2024-02-15T10:52:37;100953.59;;;15.25;97.43
3082;BME280;1551;51.046;7.010;2024-02-15T10:55:40;100956.84;;;15.33;96.83
3082;BME280;1551;51.046;7.010;2024-02-15T10:58:45;100954.00;;;15.42;96.47
3082;BME280;1551;51.046;7.010;2024-02-15T11:01:36;100951.38;;;15.44;95.77
3082;BME280;1551;51.046;7.010;2024-02-15T11:04:30;100948.72;;;15.48;95.37
3082;BME280;1551;51.046;7.010;2024-02-15T11:07:22;100945.66;;;15.66;94.92
3082;BME280;1551;51.046;7.010;2024-02-15T11:10:12;100938.28;;;15.83;94.14
3082;BME280;1551;51.046;7.010;2024-02-15T11:13:05;100929.94;;;16.05;93.00
3082;BME280;1551;51.046;7.010;2024-02-15T11:15:54;100927.44;;;16.60;91.01
3082;BME280;1551;51.046;7.010;2024-02-15T11:18:46;100933.25;;;16.94;89.70
3082;BME280;1551;51.046;7.010;2024-02-15T11:21:56;100928.47;;;17.59;87.30
3082;BME280;1551;51.046;7.010;2024-02-15T11:24:50;100919.28;;;17.99;84.91
3082;BME280;1551;51.046;7.010;2024-02-15T11:27:40;100915.53;;;18.29;82.79
3082;BME280;1551;51.046;7.010;2024-02-15T11:30:32;100927.88;;;18.22;80.84
3082;BME280;1551;51.046;7.010;2024-02-15T11:33:35;100919.25;;;18.22;80.03
3082;BME280;1551;51.046;7.010;2024-02-15T11:36:30;100912.13;;;18.28;79.97
3082;BME280;1551;51.046;7.010;2024-02-15T11:39:42;100907.22;;;18.21;79.21
3082;BME280;1551;51.046;7.010;2024-02-15T11:42:31;100899.91;;;17.85;79.88
3082;BME280;1551;51.046;7.010;2024-02-15T11:45:20;100898.53;;;17.77;79.73
3082;BME280;1551;51.046;7.010;2024-02-15T11:48:11;100898.63;;;17.74;80.06
3082;BME280;1551;51.046;7.010;2024-02-15T11:51:00;100889.66;;;17.82;80.04
3082;BME280;1551;51.046;7.010;2024-02-15T11:54:09;100890.41;;;17.86;79.25
3082;BME280;1551;51.046;7.010;2024-02-15T11:57:01;100890.75;;;18.00;78.77
3082;BME280;1551;51.046;7.010;2024-02-15T11:59:57;100889.28;;;17.70;78.95
3082;BME280;1551;51.046;7.010;2024-02-15T12:03:23;100888.19;;;17.75;78.99
3082;BME280;1551;51.046;7.010;2024-02-15T12:06:31;100889.47;;;17.89;78.99
3082;BME280;1551;51.046;7.010;2024-02-15T12:09:39;100885.22;;;17.86;78.88
3082;BME280;1551;51.046;7.010;2024-02-15T12:12:54;100885.22;;;17.63;79.02
3082;BME280;1551;51.046;7.010;2024-02-15T12:16:02;100877.00;;;17.50;79.53
3082;BME280;1551;51.046;7.010;2024-02-15T12:19:10;100870.44;;;17.42;79.29
3082;BME280;1551;51.046;7.010;2024-02-15T12:21:59;100867.19;;;17.35;80.00
3082;BME280;1551;51.046;7.010;2024-02-15T12:25:00;100864.56;;;17.37;79.92
3082;BME280;1551;51.046;7.010;2024-02-15T12:27:54;100856.66;;;17.40;79.85
3082;BME280;1551;51.046;7.010;2024-02-15T12:30:43;100849.50;;;17.48;79.84
3082;BME280;1551;51.046;7.010;2024-02-15T12:33:33;100849.88;;;17.62;79.63
3082;BME280;1551;51.046;7.010;2024-02-15T12:36:22;100848.16;;;17.61;79.23
3082;BME280;1551;51.046;7.010;2024-02-15T12:39:11;100844.63;;;17.63;79.05
3082;BME280;1551;51.046;7.010;2024-02-15T12:42:01;100843.81;;;17.63;78.68
3082;BME280;1551;51.046;7.010;2024-02-15T12:44:50;100839.09;;;17.72;78.40
3082;BME280;1551;51.046;7.010;2024-02-15T12:47:39;100841.56;;;17.99;77.70
3082;BME280;1551;51.046;7.010;2024-02-15T12:50:29;100834.38;;;18.07;76.75
3082;BME280;1551;51.046;7.010;2024-02-15T12:53:22;100829.84;;;18.55;76.06
3082;BME280;1551;51.046;7.010;2024-02-15T12:56:19;100823.69;;;19.19;73.99
3082;BME280;1551;51.046;7.010;2024-02-15T12:59:08;100824.03;;;19.31;71.42
3082;BME280;1551;51.046;7.010;2024-02-15T13:01:57;100822.00;;;18.98;72.11
3082;BME280;1551;51.046;7.010;2024-02-15T13:04:46;100818.84;;;18.92;72.15
3082;BME280;1551;51.046;7.010;2024-02-15T13:07:36;100813.88;;;18.66;72.47
3082;BME280;1551;51.046;7.010;2024-02-15T13:10:30;100808.03;;;18.61;73.11
3082;BME280;1551;51.046;7.010;2024-02-15T13:13:20;100808.56;;;19.09;72.38
3082;BME280;1551;51.046;7.010;2024-02-15T13:16:10;100799.84;;;19.30;71.00
3082;BME280;1551;51.046;7.010;2024-02-15T13:18:59;100791.28;;;19.28;70.93
3082;BME280;1551;51.046;7.010;2024-02-15T13:21:48;100794.47;;;18.94;71.01
3082;BME280;1551;51.046;7.010;2024-02-15T13:24:42;100777.81;;;18.60;70.95
3082;BME280;1551;51.046;7.010;2024-02-15T13:27:31;100774.78;;;18.28;71.29
3082;BME280;1551;51.046;7.010;2024-02-15T13:30:20;100777.97;;;18.13;72.04
3082;BME280;1551;51.046;7.010;2024-02-15T13:33:12;100774.00;;;18.05;72.81
3082;BME280;1551;51.046;7.010;2024-02-15T13:36:02;100769.34;;;18.13;72.46
3082;BME280;1551;51.046;7.010;2024-02-15T13:38:53;100767.09;;;18.05;72.57
3082;BME280;1551;51.046;7.010;2024-02-15T13:41:42;100761.34;;;17.97;72.75
3082;BME280;1551;51.046;7.010;2024-02-15T13:44:32;100767.78;;;17.87;72.47
3082;BME280;1551;51.046;7.010;2024-02-15T13:47:21;100752.22;;;17.89;72.42
3082;BME280;1551;51.046;7.010;2024-02-15T13:50:10;100742.84;;;18.49;72.32
3082;BME280;1551;51.046;7.010;2024-02-15T13:53:04;100734.91;;;19.69;68.89
3082;BME280;1551;51.046;7.010;2024-02-15T13:55:53;100737.31;;;19.90;65.94
3082;BME280;1551;51.046;7.010;2024-02-15T13:58:42;100733.50;;;19.80;65.48
3082;BME280;1551;51.046;7.010;2024-02-15T14:01:31;100735.97;;;19.46;65.50
3082;BME280;1551;51.046;7.010;2024-02-15T14:04:20;100727.53;;;19.41;65.59
3082;BME280;1551;51.046;7.010;2024-02-15T14:07:09;100722.31;;;19.22;66.66
3082;BME280;1551;51.046;7.010;2024-02-15T14:09:59;100728.31;;;19.25;66.43
3082;BME280;1551;51.046;7.010;2024-02-15T14:12:48;100715.09;;;19.10;66.61
3082;BME280;1551;51.046;7.010;2024-02-15T14:15:38;100700.88;;;18.80;67.08
3082;BME280;1551;51.046;7.010;2024-02-15T14:18:27;100699.84;;;18.64;67.42
3082;BME280;1551;51.046;7.010;2024-02-15T14:21:17;100698.69;;;18.51;67.89
3082;BME280;1551;51.046;7.010;2024-02-15T14:24:07;100697.00;;;18.50;67.66
3082;BME280;1551;51.046;7.010;2024-02-15T14:26:57;100690.34;;;18.43;68.31
3082;BME280;1551;51.046;7.010;2024-02-15T14:29:46;100701.47;;;18.46;67.85
3082;BME280;1551;51.046;7.010;2024-02-15T14:32:55;100697.81;;;18.52;67.69
3082;BME280;1551;51.046;7.010;2024-02-15T14:35:53;100701.63;;;19.02;67.24
3082;BME280;1551;51.046;7.010;2024-02-15T14:38:44;100703.75;;;19.13;65.85
3082;BME280;1551;51.046;7.010;2024-02-15T14:41:33;100690.13;;;19.08;65.96
3082;BME280;1551;51.046;7.010;2024-02-15T14:44:22;100688.31;;;19.10;66.07
3082;BME280;1551;51.046;7.010;2024-02-15T14:47:12;100690.19;;;19.06;66.08
3082;BME280;1551;51.046;7.010;2024-02-15T14:50:01;100688.28;;;18.91;66.40
3082;BME280;1551;51.046;7.010;2024-02-15T14:52:51;100686.09;;;18.82;66.59
3082;BME280;1551;51.046;7.010;2024-02-15T14:55:41;100695.09;;;18.74;66.85
3082;BME280;1551;51.046;7.010;2024-02-15T14:58:37;100691.25;;;18.64;67.36
3082;BME280;1551;51.046;7.010;2024-02-15T15:01:27;100688.97;;;18.56;67.64
3082;BME280;1551;51.046;7.010;2024-02-15T15:04:18;100685.16;;;18.43;67.99
3082;BME280;1551;51.046;7.010;2024-02-15T15:07:07;100678.94;;;18.27;67.94
3082;BME280;1551;51.046;7.010;2024-02-15T15:10:15;100671.00;;;18.11;68.60